createdAt,value
2022-11-02T00:01:14.716Z,96478.81
2022-11-02T00:06:51.165Z,96478.81
2022-11-02T00:15:09.273Z,96478.17
2022-11-02T00:20:42.310Z,96488.65
2022-11-02T00:23:30.986Z,96478.69
2022-11-02T00:29:05.865Z,96480.23
2022-11-02T00:34:41.776Z,96483.02
2022-11-02T00:40:17.842Z,96483.00
2022-11-02T00:45:51.540Z,96485.08
2022-11-02T00:51:31.198Z,96492.39
2022-11-02T00:57:06.134Z,96502.00
2022-11-02T00:59:54.145Z,96496.78
2022-11-02T01:02:42.764Z,96498.52
2022-11-02T01:11:14.092Z,96506.34
2022-11-02T01:16:47.263Z,96496.19
2022-11-02T01:22:20.904Z,96504.59
2022-11-02T01:27:57.060Z,96505.89
2022-11-02T01:33:48.791Z,96505.67
2022-11-02T01:39:36.361Z,96507.98
2022-11-02T01:45:16.912Z,96494.59
2022-11-02T01:50:53.623Z,96498.61
2022-11-02T01:56:25.397Z,96504.94
2022-11-02T02:02:03.466Z,96490.61
2022-11-02T02:07:42.204Z,96493.16
2022-11-02T02:13:31.464Z,96496.38
2022-11-02T02:19:08.326Z,96495.48
2022-11-02T02:22:01.945Z,96494.66
2022-11-02T02:30:42.118Z,96487.39
2022-11-02T02:39:04.026Z,96478.97
2022-11-02T02:44:42.728Z,96481.45
2022-11-02T02:47:33.955Z,96484.12
2022-11-02T02:53:04.717Z,96480.52
2022-11-02T02:58:36.992Z,96471.19
2022-11-02T03:04:14.020Z,96472.08
2022-11-02T03:07:03.818Z,96470.70
2022-11-02T03:12:43.438Z,96471.02
2022-11-02T03:20:59.626Z,96479.06
2022-11-02T03:29:26.049Z,96481.13
2022-11-02T03:32:17.756Z,96481.78
2022-11-02T03:40:33.910Z,96470.47
2022-11-02T03:46:12.471Z,96473.80
2022-11-02T03:51:49.836Z,96478.27
2022-11-02T03:57:36.649Z,96484.27
2022-11-02T04:00:25.980Z,96473.80
2022-11-02T04:03:15.151Z,96477.17
2022-11-02T04:08:52.234Z,96488.13
2022-11-02T04:11:58.471Z,96496.41
2022-11-02T04:17:52.216Z,96488.83
2022-11-02T04:23:46.686Z,96496.95
2022-11-02T04:29:13.613Z,96497.13
2022-11-02T04:34:47.248Z,96498.41
2022-11-02T04:37:58.791Z,96494.17
2022-11-02T04:40:47.321Z,96499.02
2022-11-02T04:43:35.211Z,96506.48
2022-11-02T04:51:49.982Z,96529.23
2022-11-02T04:54:38.188Z,96523.91
2022-11-02T05:00:11.050Z,96517.55
2022-11-02T05:05:49.752Z,96524.52
2022-11-02T05:14:09.730Z,96523.73
2022-11-02T05:22:31.467Z,96518.33
2022-11-02T05:28:22.861Z,96526.51
2022-11-02T05:33:52.509Z,96535.63
2022-11-02T05:42:11.029Z,96536.55
2022-11-02T05:44:59.535Z,96539.48
2022-11-02T05:47:48.578Z,96537.88
2022-11-02T05:53:24.539Z,96546.08
2022-11-02T05:59:01.469Z,96551.09
2022-11-02T06:04:33.224Z,96553.95
2022-11-02T06:10:05.492Z,96561.07
2022-11-02T06:18:33.044Z,96564.03
2022-11-02T06:21:21.539Z,96577.19
2022-11-02T06:26:57.668Z,96579.49
2022-11-02T06:32:51.496Z,96589.69
2022-11-02T06:38:28.297Z,96600.55
2022-11-02T06:41:18.777Z,96600.55
2022-11-02T06:46:52.813Z,96609.81
2022-11-02T06:52:22.863Z,96609.30
2022-11-02T06:55:16.284Z,96616.33
2022-11-02T07:00:50.861Z,96623.98
2022-11-02T07:06:26.992Z,96636.39
2022-11-02T07:11:56.536Z,96651.00
2022-11-02T07:20:32.316Z,96654.68
2022-11-02T07:23:21.894Z,96665.59
2022-11-02T07:31:43.423Z,96673.56
2022-11-02T07:34:31.891Z,96670.45
2022-11-02T07:42:58.267Z,96680.84
2022-11-02T07:45:46.804Z,96681.66
2022-11-02T07:48:36.776Z,96675.36
2022-11-02T07:51:24.910Z,96675.36
2022-11-02T07:54:13.317Z,96676.48
2022-11-02T07:57:02.084Z,96673.89
2022-11-02T08:02:37.595Z,96673.42
2022-11-02T08:05:26.758Z,96678.56
2022-11-02T08:13:40.331Z,96681.32
2022-11-02T08:19:08.966Z,96681.95
2022-11-02T08:24:54.522Z,96701.38
2022-11-02T08:30:31.446Z,96690.48
2022-11-02T08:36:08.679Z,96697.95
2022-11-02T08:41:40.681Z,96704.82
2022-11-02T08:47:20.029Z,96706.89
2022-11-02T08:50:10.091Z,96701.22
2022-11-02T08:55:39.024Z,96706.61
2022-11-02T09:01:16.605Z,96706.84
2022-11-02T09:06:48.957Z,96711.80
2022-11-02T09:09:37.714Z,96706.77
2022-11-02T09:15:12.672Z,96708.29
2022-11-02T09:18:02.145Z,96701.93
2022-11-02T09:20:51.201Z,96696.42
2022-11-02T09:23:39.308Z,96699.16
2022-11-02T09:26:28.474Z,96700.05
2022-11-02T09:29:16.821Z,96698.18
2022-11-02T09:40:23.203Z,96705.39
2022-11-02T09:48:49.378Z,96710.88
2022-11-02T09:54:29.111Z,96710.53
2022-11-02T10:00:18.926Z,96704.75
2022-11-02T10:03:14.486Z,96711.57
2022-11-02T10:08:54.469Z,96717.72
2022-11-02T10:14:32.679Z,96720.35
2022-11-02T10:20:18.108Z,96708.06
2022-11-02T10:28:40.997Z,96705.42
2022-11-02T10:34:17.438Z,96700.55
2022-11-02T10:40:06.063Z,96694.63
2022-11-02T10:43:12.221Z,96692.92
2022-11-02T10:49:06.660Z,96688.66
2022-11-02T10:54:40.467Z,96673.17
2022-11-02T11:00:34.784Z,96677.17
2022-11-02T11:06:13.136Z,96670.08
2022-11-02T11:11:57.008Z,96654.12
2022-11-02T11:20:37.425Z,96644.77
2022-11-02T11:29:02.619Z,96631.80
2022-11-02T11:31:51.458Z,96628.58
2022-11-02T11:37:33.762Z,96624.66
2022-11-02T11:43:12.301Z,96609.92
2022-11-02T11:46:06.589Z,96604.18
2022-11-02T11:51:40.320Z,96598.91
2022-11-02T12:00:30.038Z,96598.86
2022-11-02T12:06:09.957Z,96594.30
2022-11-02T12:12:07.748Z,96591.37
2022-11-02T12:18:00.311Z,96588.69
2022-11-02T12:24:38.557Z,96580.60
2022-11-02T12:27:32.936Z,96574.20
2022-11-02T12:33:35.911Z,96570.66
2022-11-02T12:42:15.472Z,96561.66
2022-11-02T12:48:00.730Z,96555.78
2022-11-02T12:53:47.162Z,96550.62
2022-11-02T12:59:44.703Z,96541.75
2022-11-02T13:05:22.765Z,96537.48
2022-11-02T13:08:16.391Z,96527.52
2022-11-02T13:14:15.398Z,96520.69
2022-11-02T13:19:51.256Z,96511.31
2022-11-02T13:31:07.609Z,96507.05
2022-11-02T13:36:55.174Z,96499.31
2022-11-02T13:48:51.134Z,96500.03
2022-11-02T13:51:41.340Z,96496.69
2022-11-02T14:03:09.286Z,96494.72
2022-11-02T14:08:50.236Z,96497.72
2022-11-02T14:11:47.700Z,96496.13
2022-11-02T14:17:24.046Z,96487.05
2022-11-02T14:23:38.914Z,96486.36
2022-11-02T14:29:41.099Z,96475.55
2022-11-02T14:38:20.354Z,96475.87
2022-11-02T14:41:16.933Z,96480.09
2022-11-02T14:47:20.144Z,96477.95
2022-11-02T14:50:15.858Z,96477.36
2022-11-02T14:55:49.112Z,96462.38
2022-11-02T15:01:21.399Z,96458.77
2022-11-02T15:06:59.492Z,96454.87
2022-11-02T15:12:41.067Z,96447.13
2022-11-02T15:18:38.091Z,96446.23
2022-11-02T15:24:30.467Z,96444.87
2022-11-02T15:30:09.323Z,96440.34
2022-11-02T15:35:41.886Z,96434.45
2022-11-02T15:41:25.401Z,96429.22
2022-11-02T15:47:06.632Z,96429.62
2022-11-02T15:59:00.201Z,96427.97
2022-11-02T16:01:49.573Z,96424.30
2022-11-02T16:10:18.359Z,96414.19
2022-11-02T16:16:09.670Z,96410.30
2022-11-02T16:19:01.149Z,96410.47
2022-11-02T16:21:49.844Z,96403.19
2022-11-02T16:24:41.430Z,96411.47
2022-11-02T16:27:31.097Z,96408.93
2022-11-02T16:33:02.912Z,96408.41
2022-11-02T16:38:40.221Z,96403.95
2022-11-02T16:44:18.796Z,96402.19
2022-11-02T16:50:16.501Z,96403.23
2022-11-02T16:55:49.044Z,96401.16
2022-11-02T16:58:37.752Z,96407.32
2022-11-02T17:01:26.313Z,96402.63
2022-11-02T17:07:08.336Z,96396.89
2022-11-02T17:09:59.259Z,96385.33
2022-11-02T17:12:47.907Z,96391.53
2022-11-02T17:18:30.443Z,96390.70
2022-11-02T17:21:32.205Z,96395.28
2022-11-02T17:24:35.498Z,96393.94
2022-11-02T17:30:45.298Z,96388.36
2022-11-02T17:36:35.081Z,96388.33
2022-11-02T17:42:31.123Z,96388.60
2022-11-02T17:48:11.602Z,96372.66
2022-11-02T17:53:45.142Z,96372.66
2022-11-02T17:59:16.407Z,96365.20
2022-11-02T18:04:59.337Z,96354.91
2022-11-02T18:07:47.885Z,96357.63
2022-11-02T18:13:26.714Z,96351.41
2022-11-02T18:19:02.171Z,96350.69
2022-11-02T18:24:40.287Z,96343.85
2022-11-02T18:27:31.434Z,96342.05
2022-11-02T18:33:13.035Z,96342.78
2022-11-02T18:38:51.844Z,96336.59
2022-11-02T18:44:27.234Z,96332.80
2022-11-02T18:50:05.404Z,96330.98
2022-11-02T18:55:43.948Z,96320.63
2022-11-02T19:01:24.518Z,96318.17
2022-11-02T19:04:17.441Z,96316.94
2022-11-02T19:09:50.954Z,96307.06
2022-11-02T19:15:27.235Z,96310.64
2022-11-02T19:18:15.601Z,96316.21
2022-11-02T19:23:53.931Z,96315.05
2022-11-02T19:26:43.160Z,96310.92
2022-11-02T19:32:18.589Z,96305.22
2022-11-02T19:35:08.079Z,96307.70
2022-11-02T19:38:00.144Z,96312.02
2022-11-02T19:40:49.598Z,96306.98
2022-11-02T19:46:28.063Z,96307.45
2022-11-02T19:52:18.965Z,96307.25
2022-11-02T19:55:10.786Z,96309.67
2022-11-02T19:57:59.113Z,96308.94
2022-11-02T20:00:53.088Z,96307.91
2022-11-02T20:06:27.032Z,96303.91
2022-11-02T20:09:17.294Z,96308.45
2022-11-02T20:14:53.612Z,96307.31
2022-11-02T20:20:35.179Z,96305.27
2022-11-02T20:23:24.002Z,96305.80
2022-11-02T20:31:48.320Z,96287.46
2022-11-02T20:37:23.235Z,96292.33
2022-11-02T20:40:13.250Z,96288.48
2022-11-02T20:46:31.359Z,96286.28
2022-11-02T20:49:04.517Z,96286.09
2022-11-02T20:54:34.583Z,96285.01
2022-11-02T21:00:13.914Z,96281.17
2022-11-02T21:05:51.082Z,96268.00
2022-11-02T21:08:40.463Z,96271.10
2022-11-02T21:14:34.194Z,96266.80
2022-11-02T21:17:23.438Z,96264.25
2022-11-02T21:23:01.592Z,96264.47
2022-11-02T21:28:42.039Z,96263.45
2022-11-02T21:31:30.307Z,96259.27
2022-11-02T21:36:58.198Z,96263.28
2022-11-02T21:39:59.973Z,96273.12
2022-11-02T21:42:52.555Z,96272.74
2022-11-02T21:48:54.411Z,96267.75
2022-11-02T21:54:32.763Z,96263.39
2022-11-02T21:57:20.865Z,96261.91
2022-11-02T22:00:12.110Z,96250.30
2022-11-02T22:03:02.879Z,96243.84
2022-11-02T22:06:01.246Z,96239.60
2022-11-02T22:11:36.027Z,96246.86
2022-11-02T22:23:07.875Z,96238.24
2022-11-02T22:26:03.127Z,96235.23
2022-11-02T22:28:51.950Z,96236.36
2022-11-02T22:34:33.972Z,96220.84
2022-11-02T22:40:10.053Z,96217.89
2022-11-02T22:42:59.366Z,96218.84
2022-11-02T22:45:48.350Z,96216.14
2022-11-02T22:54:26.455Z,96224.45
2022-11-02T23:00:20.654Z,96222.09
2022-11-02T23:03:09.626Z,96217.17
2022-11-02T23:05:58.697Z,96220.03
2022-11-02T23:11:45.515Z,96216.10
2022-11-02T23:17:23.170Z,96213.52
2022-11-02T23:20:17.770Z,96213.69
2022-11-02T23:25:47.445Z,96210.00
2022-11-02T23:34:09.056Z,96215.04
2022-11-02T23:40:11.720Z,96211.05
2022-11-02T23:45:53.591Z,96209.08
2022-11-02T23:51:48.603Z,96202.07
2022-11-02T23:54:55.290Z,96199.48
2022-11-02T23:57:43.314Z,96193.21
